createdAt,value
2018-04-18T00:01:24.169Z,12.40
2018-04-18T00:03:52.388Z,12.40
2018-04-18T00:06:19.851Z,12.40
2018-04-18T00:08:47.302Z,12.30
2018-04-18T00:11:14.765Z,12.30
2018-04-18T00:13:42.229Z,12.20
2018-04-18T00:16:09.674Z,12.20
2018-04-18T00:18:37.134Z,12.20
2018-04-18T00:21:04.579Z,12.10
2018-04-18T00:23:32.045Z,12.00
2018-04-18T00:25:59.485Z,12.10
2018-04-18T00:28:26.947Z,12.10
2018-04-18T00:30:54.455Z,12.10
2018-04-18T00:33:21.901Z,12.00
2018-04-18T00:35:50.136Z,12.00
2018-04-18T00:38:17.589Z,12.00
2018-04-18T00:40:45.039Z,12.00
2018-04-18T00:43:12.507Z,12.00
2018-04-18T00:45:39.971Z,12.00
2018-04-18T00:48:07.425Z,12.00
2018-04-18T00:50:34.892Z,11.90
2018-04-18T00:53:02.347Z,11.80
2018-04-18T00:55:29.805Z,11.80
2018-04-18T00:57:57.260Z,11.80
2018-04-18T01:00:24.713Z,11.90
2018-04-18T01:02:52.166Z,11.80
2018-04-18T01:05:19.619Z,11.80
2018-04-18T01:07:47.067Z,11.80
2018-04-18T01:10:15.550Z,11.70
2018-04-18T01:12:43.013Z,11.70
2018-04-18T01:15:10.461Z,11.80
2018-04-18T01:17:37.914Z,11.80
2018-04-18T01:20:05.381Z,11.80
2018-04-18T01:22:32.841Z,11.70
2018-04-18T01:25:01.067Z,11.50
2018-04-18T01:27:28.554Z,11.50
2018-04-18T01:29:55.991Z,11.60
2018-04-18T01:32:24.214Z,11.60
2018-04-18T01:34:51.684Z,11.60
2018-04-18T01:37:19.146Z,11.60
2018-04-18T01:39:46.614Z,11.60
2018-04-18T01:42:14.066Z,11.60
2018-04-18T01:44:41.523Z,11.60
2018-04-18T01:47:08.966Z,11.50
2018-04-18T01:49:36.516Z,11.50
2018-04-18T01:52:03.969Z,11.50
2018-04-18T01:54:31.424Z,11.50
2018-04-18T01:56:59.682Z,11.50
2018-04-18T01:59:27.127Z,11.40
2018-04-18T02:01:55.338Z,11.40
2018-04-18T02:04:22.797Z,11.40
2018-04-18T02:06:50.238Z,11.30
2018-04-18T02:09:17.699Z,11.20
2018-04-18T02:11:45.158Z,11.20
2018-04-18T02:14:12.610Z,11.20
2018-04-18T02:16:40.055Z,11.20
2018-04-18T02:19:07.631Z,11.20
2018-04-18T02:21:35.168Z,11.10
2018-04-18T02:24:02.627Z,11.20
2018-04-18T02:26:30.068Z,11.10
2018-04-18T02:28:58.281Z,11.10
2018-04-18T02:31:25.736Z,11.10
2018-04-18T02:33:53.201Z,11.10
2018-04-18T02:36:20.656Z,11.10
2018-04-18T02:38:48.109Z,11.20
2018-04-18T02:41:15.553Z,11.20
2018-04-18T02:43:43.007Z,11.20
2018-04-18T02:46:10.455Z,11.20
2018-04-18T02:48:38.682Z,11.20
2018-04-18T02:51:06.179Z,11.10
2018-04-18T02:53:34.411Z,11.10
2018-04-18T02:56:01.851Z,11.10
2018-04-18T02:58:29.301Z,11.10
2018-04-18T03:00:57.519Z,11.10
2018-04-18T03:03:24.973Z,11.10
2018-04-18T03:05:52.438Z,11.00
2018-04-18T03:08:19.886Z,11.00
2018-04-18T03:10:47.339Z,10.90
2018-04-18T03:13:14.792Z,10.90
2018-04-18T03:15:42.244Z,10.90
2018-04-18T03:18:09.951Z,10.90
2018-04-18T03:20:41.808Z,10.80
2018-04-18T03:23:10.087Z,10.60
2018-04-18T03:25:38.495Z,10.70
2018-04-18T03:28:06.955Z,10.60
2018-04-18T03:30:35.155Z,10.60
2018-04-18T03:33:02.692Z,10.60
2018-04-18T03:35:30.149Z,10.60
2018-04-18T03:37:57.601Z,10.60
2018-04-18T03:40:25.828Z,10.70
2018-04-18T03:42:53.364Z,10.60
2018-04-18T03:45:20.806Z,10.70
2018-04-18T03:47:48.252Z,10.70
2018-04-18T03:50:15.710Z,10.60
2018-04-18T03:52:43.173Z,10.70
2018-04-18T03:55:10.648Z,10.70
2018-04-18T03:57:38.082Z,10.50
2018-04-18T04:00:05.544Z,10.50
2018-04-18T04:02:32.992Z,10.50
2018-04-18T04:05:02.202Z,10.50
2018-04-18T04:07:29.648Z,10.40
2018-04-18T04:09:58.859Z,10.50
2018-04-18T04:12:26.295Z,10.50
2018-04-18T04:14:54.513Z,10.40
2018-04-18T04:17:33.902Z,10.50
2018-04-18T04:20:13.332Z,10.40
2018-04-18T04:22:52.718Z,10.40
2018-04-18T04:25:20.169Z,10.30
2018-04-18T04:27:47.616Z,10.30
2018-04-18T04:30:15.077Z,10.30
2018-04-18T04:32:42.527Z,10.30
2018-04-18T04:35:09.975Z,10.30
2018-04-18T04:37:38.192Z,10.30
2018-04-18T04:40:05.663Z,10.30
2018-04-18T04:42:33.108Z,10.20
2018-04-18T04:45:00.593Z,10.10
2018-04-18T04:47:28.178Z,10.10
2018-04-18T04:49:55.650Z,10.20
2018-04-18T04:52:23.097Z,10.20
2018-04-18T04:54:51.310Z,10.40
2018-04-18T04:57:19.093Z,10.30
2018-04-18T04:59:47.359Z,10.50
2018-04-18T05:02:14.811Z,10.40
2018-04-18T05:04:42.258Z,10.50
2018-04-18T05:07:09.713Z,10.60
2018-04-18T05:09:37.160Z,10.60
2018-04-18T05:12:04.619Z,10.70
2018-04-18T05:14:32.060Z,10.70
2018-04-18T05:17:00.284Z,10.70
2018-04-18T05:19:27.757Z,10.60
2018-04-18T05:21:57.225Z,10.80
2018-04-18T05:24:24.681Z,10.80
2018-04-18T05:26:52.143Z,10.90
2018-04-18T05:29:21.639Z,10.90
2018-04-18T05:31:51.137Z,10.90
2018-04-18T05:34:18.604Z,10.90
2018-04-18T05:36:46.051Z,11.00
2018-04-18T05:39:13.509Z,11.00
2018-04-18T05:41:40.999Z,11.10
2018-04-18T05:44:08.457Z,11.10
2018-04-18T05:46:35.899Z,11.20
2018-04-18T05:49:03.357Z,11.20
2018-04-18T05:51:30.810Z,11.20
2018-04-18T05:53:58.257Z,11.30
2018-04-18T05:56:25.707Z,11.40
2018-04-18T05:58:53.164Z,11.40
2018-04-18T06:01:20.632Z,11.60
2018-04-18T06:03:48.096Z,11.70
2018-04-18T06:06:15.585Z,11.70
2018-04-18T06:08:43.011Z,11.80
2018-04-18T06:11:10.497Z,11.90
2018-04-18T06:13:37.949Z,12.00
2018-04-18T06:16:05.405Z,12.10
2018-04-18T06:18:32.852Z,12.20
2018-04-18T06:21:00.579Z,12.30
2018-04-18T06:23:28.040Z,12.40
2018-04-18T06:25:55.498Z,12.50
2018-04-18T06:28:22.951Z,12.60
2018-04-18T06:30:51.183Z,12.90
2018-04-18T06:33:18.629Z,12.80
2018-04-18T06:35:46.075Z,13.00
2018-04-18T06:38:13.550Z,13.10
2018-04-18T06:40:41.002Z,13.20
2018-04-18T06:43:08.448Z,13.40
2018-04-18T06:45:35.901Z,13.60
2018-04-18T06:48:03.354Z,13.60
2018-04-18T06:50:30.807Z,13.80
2018-04-18T06:52:58.269Z,14.00
2018-04-18T06:55:25.723Z,14.20
2018-04-18T06:57:53.185Z,14.40
2018-04-18T07:00:20.623Z,14.70
2018-04-18T07:02:48.098Z,15.20
2018-04-18T07:05:15.552Z,15.60
2018-04-18T07:07:42.995Z,16.00
2018-04-18T07:10:10.439Z,16.40
2018-04-18T07:12:38.674Z,17.10
2018-04-18T07:15:06.120Z,17.00
2018-04-18T07:17:33.663Z,17.30
2018-04-18T07:20:01.112Z,17.80
2018-04-18T07:22:28.553Z,18.10
2018-04-18T07:24:56.012Z,18.30
2018-04-18T07:27:23.475Z,18.60
2018-04-18T07:29:50.920Z,18.70
2018-04-18T07:32:19.131Z,19.00
2018-04-18T07:34:46.584Z,19.00
2018-04-18T07:37:14.052Z,19.00
2018-04-18T07:39:41.491Z,19.20
2018-04-18T07:42:08.937Z,19.30
2018-04-18T07:44:36.394Z,19.40
2018-04-18T07:47:04.597Z,19.90
2018-04-18T07:49:32.076Z,19.90
2018-04-18T07:51:59.506Z,20.20
2018-04-18T07:54:26.952Z,20.60
2018-04-18T07:56:54.406Z,20.70
2018-04-18T07:59:21.865Z,20.80
2018-04-18T08:01:50.313Z,21.00
2018-04-18T08:04:18.537Z,21.10
2018-04-18T08:06:46.000Z,21.00
2018-04-18T08:09:13.448Z,21.30
2018-04-18T08:11:40.922Z,21.20
2018-04-18T08:14:08.372Z,21.50
2018-04-18T08:16:35.835Z,21.70
2018-04-18T08:19:13.848Z,22.00
2018-04-18T08:21:41.319Z,22.30
2018-04-18T08:24:08.762Z,22.70
2018-04-18T08:26:36.213Z,22.90
2018-04-18T08:29:03.716Z,23.20
2018-04-18T08:31:31.929Z,23.90
2018-04-18T08:33:59.415Z,23.80
2018-04-18T08:36:27.325Z,24.00
2018-04-18T08:38:54.765Z,24.00
2018-04-18T08:41:24.109Z,24.30
2018-04-18T08:43:51.822Z,24.30
2018-04-18T08:46:19.315Z,24.60
2018-04-18T08:48:46.775Z,24.60
2018-04-18T08:51:14.250Z,24.90
2018-04-18T08:53:41.692Z,25.10
2018-04-18T08:56:09.162Z,25.20
2018-04-18T08:58:36.619Z,25.00
2018-04-18T09:01:04.056Z,25.00
2018-04-18T09:03:31.501Z,25.00
2018-04-18T09:05:59.727Z,25.50
2018-04-18T09:08:28.257Z,25.40
2018-04-18T09:10:56.481Z,26.00
2018-04-18T09:13:23.946Z,26.00
2018-04-18T09:15:51.412Z,26.30
2018-04-18T09:18:18.864Z,26.30
2018-04-18T09:20:46.301Z,26.20
2018-04-18T09:23:13.821Z,26.30
2018-04-18T09:25:42.030Z,26.40
2018-04-18T09:28:09.632Z,26.30
2018-04-18T09:30:37.084Z,26.30
2018-04-18T09:33:04.620Z,26.60
2018-04-18T09:35:32.059Z,27.10
2018-04-18T09:37:59.512Z,27.30
2018-04-18T09:40:27.035Z,27.50
2018-04-18T09:42:55.342Z,27.70
2018-04-18T09:45:22.780Z,27.60
2018-04-18T09:47:51.095Z,28.00
2018-04-18T09:50:18.540Z,28.00
2018-04-18T09:52:45.982Z,28.30
2018-04-18T09:55:13.410Z,28.20
2018-04-18T09:57:41.635Z,28.10
2018-04-18T10:00:09.143Z,28.10
2018-04-18T10:02:37.396Z,28.50
2018-04-18T10:05:07.671Z,28.50
2018-04-18T10:07:35.128Z,28.30
2018-04-18T10:10:02.563Z,28.00
2018-04-18T10:12:31.882Z,28.20
2018-04-18T10:14:59.325Z,28.20
2018-04-18T10:17:27.535Z,28.50
2018-04-18T10:19:54.977Z,28.40
2018-04-18T10:22:22.411Z,28.50
2018-04-18T10:24:50.629Z,29.10
2018-04-18T10:27:18.081Z,29.10
2018-04-18T10:29:45.531Z,29.30
2018-04-18T10:32:12.980Z,29.40
2018-04-18T10:34:40.421Z,29.50
2018-04-18T10:37:08.634Z,29.40
2018-04-18T10:39:38.104Z,29.40
2018-04-18T10:42:05.662Z,29.20
2018-04-18T10:44:33.872Z,28.80
2018-04-18T10:47:01.333Z,28.80
2018-04-18T10:49:28.786Z,28.10
2018-04-18T10:51:56.218Z,28.20
2018-04-18T10:54:23.670Z,28.10
2018-04-18T10:56:51.113Z,28.50
2018-04-18T10:59:19.405Z,29.50
2018-04-18T11:01:46.844Z,29.50
2018-04-18T11:04:15.067Z,30.20
2018-04-18T11:06:42.661Z,30.20
2018-04-18T11:09:10.120Z,29.20
2018-04-18T11:11:37.551Z,29.50
2018-04-18T11:14:05.066Z,29.60
2018-04-18T11:16:33.290Z,29.20
2018-04-18T11:19:00.735Z,29.20
2018-04-18T11:21:28.202Z,29.60
2018-04-18T11:23:55.651Z,29.50
2018-04-18T11:26:23.100Z,29.50
2018-04-18T11:28:50.543Z,29.70
2018-04-18T11:31:17.998Z,29.80
2018-04-18T11:33:45.432Z,29.90
2018-04-18T11:36:13.654Z,30.20
2018-04-18T11:38:41.101Z,30.30
2018-04-18T11:41:08.547Z,30.00
2018-04-18T11:43:35.995Z,29.90
2018-04-18T11:46:03.447Z,29.70
2018-04-18T11:48:30.894Z,29.60
2018-04-18T11:50:59.123Z,29.10
2018-04-18T11:53:26.573Z,29.10
2018-04-18T11:55:54.030Z,28.60
2018-04-18T11:58:21.475Z,28.30
2018-04-18T12:00:48.927Z,28.10
2018-04-18T12:03:16.379Z,28.10
2018-04-18T12:05:43.850Z,28.00
2018-04-18T12:08:11.322Z,28.00
2018-04-18T12:10:38.758Z,28.00
2018-04-18T12:13:06.296Z,27.90
2018-04-18T12:15:34.504Z,27.80
2018-04-18T12:18:01.957Z,27.80
2018-04-18T12:20:29.394Z,27.60
2018-04-18T12:22:56.862Z,27.40
2018-04-18T12:25:24.306Z,27.30
2018-04-18T12:27:52.541Z,27.40
2018-04-18T12:30:19.984Z,27.30
2018-04-18T12:32:47.438Z,27.30
2018-04-18T12:35:14.885Z,27.30
2018-04-18T12:37:42.538Z,27.10
2018-04-18T12:40:10.082Z,27.00
2018-04-18T12:42:37.546Z,27.10
2018-04-18T12:45:05.015Z,26.80
2018-04-18T12:47:32.469Z,26.80
2018-04-18T12:49:59.908Z,26.90
2018-04-18T12:52:27.368Z,26.90
2018-04-18T12:54:54.811Z,26.90
2018-04-18T12:57:22.253Z,26.80
2018-04-18T12:59:50.451Z,26.70
2018-04-18T13:02:17.905Z,26.70
2018-04-18T13:04:45.351Z,26.80
2018-04-18T13:07:13.580Z,26.60
2018-04-18T13:09:43.028Z,26.50
2018-04-18T13:12:11.244Z,26.50
2018-04-18T13:14:38.679Z,26.50
2018-04-18T13:17:06.142Z,26.50
2018-04-18T13:19:33.583Z,26.50
2018-04-18T13:22:01.036Z,26.60
2018-04-18T13:24:29.254Z,26.30
2018-04-18T13:26:56.708Z,26.30
2018-04-18T13:29:24.151Z,26.20
2018-04-18T13:31:51.596Z,26.20
2018-04-18T13:34:19.069Z,26.10
2018-04-18T13:36:46.601Z,26.20
2018-04-18T13:39:14.843Z,26.10
2018-04-18T13:41:42.304Z,26.10
2018-04-18T13:44:09.734Z,26.20
2018-04-18T13:46:37.199Z,26.30
2018-04-18T13:49:04.719Z,26.20
2018-04-18T13:51:35.342Z,26.20
2018-04-18T13:54:02.778Z,26.20
2018-04-18T13:56:31.071Z,26.30
2018-04-18T13:58:59.296Z,26.40
2018-04-18T14:01:26.741Z,26.40
2018-04-18T14:03:54.196Z,26.40
2018-04-18T14:06:21.647Z,26.40
2018-04-18T14:08:49.167Z,26.50
2018-04-18T14:11:17.394Z,26.40
2018-04-18T14:13:44.838Z,26.50
2018-04-18T14:16:12.288Z,26.30
2018-04-18T14:18:39.740Z,26.40
2018-04-18T14:21:07.181Z,26.30
2018-04-18T14:23:34.629Z,26.20
2018-04-18T14:26:02.377Z,26.20
2018-04-18T14:28:29.863Z,26.20
2018-04-18T14:30:57.316Z,26.10
2018-04-18T14:33:24.772Z,26.10
2018-04-18T14:35:52.982Z,26.00
2018-04-18T14:38:20.449Z,26.00
2018-04-18T14:40:47.895Z,26.00
2018-04-18T14:43:15.350Z,26.00
2018-04-18T14:45:42.783Z,25.90
2018-04-18T14:48:10.231Z,25.80
2018-04-18T14:50:38.437Z,25.90
2018-04-18T14:53:05.893Z,25.90
2018-04-18T14:55:33.358Z,25.90
2018-04-18T14:58:00.848Z,25.90
2018-04-18T15:00:28.342Z,25.80
2018-04-18T15:02:55.830Z,25.80
2018-04-18T15:05:23.277Z,25.80
2018-04-18T15:07:50.732Z,25.80
2018-04-18T15:10:19.200Z,25.90
2018-04-18T15:12:46.645Z,25.90
2018-04-18T15:15:14.937Z,26.10
2018-04-18T15:17:43.138Z,26.20
2018-04-18T15:20:10.600Z,26.10
2018-04-18T15:22:38.071Z,26.10
2018-04-18T15:25:05.513Z,26.10
2018-04-18T15:27:32.967Z,26.00
2018-04-18T15:30:00.420Z,25.90
2018-04-18T15:32:27.879Z,25.90
2018-04-18T15:34:55.485Z,25.90
2018-04-18T15:37:22.940Z,25.90
2018-04-18T15:39:51.484Z,26.00
2018-04-18T15:42:18.930Z,26.00
2018-04-18T15:44:46.396Z,25.90
2018-04-18T15:47:13.832Z,25.90
2018-04-18T15:49:41.274Z,25.90
2018-04-18T15:52:09.496Z,25.90
2018-04-18T15:54:36.939Z,25.90
2018-04-18T15:57:04.402Z,25.90
2018-04-18T15:59:31.845Z,25.90
2018-04-18T16:01:59.286Z,25.80
2018-04-18T16:04:26.735Z,25.80
2018-04-18T16:06:55.219Z,25.80
2018-04-18T16:09:22.670Z,25.80
2018-04-18T16:11:50.890Z,25.80
2018-04-18T16:14:18.351Z,25.80
2018-04-18T16:16:45.808Z,25.80
2018-04-18T16:19:13.253Z,25.80
2018-04-18T16:21:40.702Z,25.70
2018-04-18T16:24:08.138Z,25.70
2018-04-18T16:26:35.586Z,25.70
2018-04-18T16:29:15.604Z,25.70
2018-04-18T16:31:43.082Z,25.60
2018-04-18T16:34:13.950Z,25.60
2018-04-18T16:36:41.393Z,25.60
2018-04-18T16:39:09.604Z,25.60
2018-04-18T16:41:37.058Z,25.50
2018-04-18T16:44:04.512Z,25.50
2018-04-18T16:46:31.955Z,25.50
2018-04-18T16:48:59.417Z,25.50
2018-04-18T16:51:26.863Z,25.50
2018-04-18T16:53:54.324Z,25.40
2018-04-18T16:56:21.781Z,25.40
2018-04-18T16:58:49.227Z,25.30
2018-04-18T17:01:17.453Z,25.30
2018-04-18T17:03:44.895Z,25.30
2018-04-18T17:06:12.340Z,25.30
2018-04-18T17:08:39.778Z,25.30
2018-04-18T17:11:07.265Z,25.20
2018-04-18T17:13:34.747Z,25.20
2018-04-18T17:16:02.208Z,25.20
2018-04-18T17:18:29.697Z,25.10
2018-04-18T17:20:57.852Z,25.00
2018-04-18T17:23:25.299Z,25.10
2018-04-18T17:25:52.755Z,25.00
2018-04-18T17:28:20.193Z,25.00
2018-04-18T17:30:47.656Z,24.90
2018-04-18T17:33:15.096Z,24.90
2018-04-18T17:35:42.538Z,24.90
2018-04-18T17:38:10.012Z,24.90
2018-04-18T17:40:37.469Z,24.80
2018-04-18T17:43:04.927Z,24.70
2018-04-18T17:45:32.379Z,24.60
2018-04-18T17:47:59.840Z,24.60
2018-04-18T17:50:27.295Z,24.60
2018-04-18T17:52:54.751Z,24.60
2018-04-18T17:55:22.226Z,24.50
2018-04-18T17:57:50.442Z,24.40
2018-04-18T18:00:17.938Z,24.30
2018-04-18T18:02:46.115Z,24.20
2018-04-18T18:05:13.568Z,24.20
2018-04-18T18:07:41.020Z,24.10
2018-04-18T18:10:12.767Z,24.10
2018-04-18T18:12:40.204Z,24.00
2018-04-18T18:15:08.405Z,23.70
2018-04-18T18:17:35.871Z,23.70
2018-04-18T18:20:03.309Z,23.60
2018-04-18T18:22:30.759Z,23.50
2018-04-18T18:24:58.971Z,23.20
2018-04-18T18:27:26.431Z,23.20
2018-04-18T18:29:54.903Z,23.10
2018-04-18T18:32:22.362Z,22.90
2018-04-18T18:34:49.825Z,22.70
2018-04-18T18:37:17.282Z,22.50
2018-04-18T18:39:45.737Z,22.30
2018-04-18T18:42:13.192Z,22.10
2018-04-18T18:44:40.641Z,21.90
2018-04-18T18:47:08.878Z,21.80
2018-04-18T18:49:36.329Z,21.80
2018-04-18T18:52:03.773Z,21.80
2018-04-18T18:54:31.219Z,21.60
2018-04-18T18:56:58.722Z,21.40
2018-04-18T18:59:26.117Z,21.30
2018-04-18T19:01:53.597Z,21.30
2018-04-18T19:04:21.052Z,21.10
2018-04-18T19:06:48.525Z,21.00
2018-04-18T19:09:16.032Z,21.00
2018-04-18T19:11:44.357Z,20.80
2018-04-18T19:14:11.808Z,20.70
2018-04-18T19:16:40.279Z,20.70
2018-04-18T19:19:07.819Z,20.60
2018-04-18T19:21:35.276Z,20.50
2018-04-18T19:24:03.500Z,20.20
2018-04-18T19:26:31.707Z,20.10
2018-04-18T19:28:59.939Z,20.10
2018-04-18T19:31:27.373Z,20.00
2018-04-18T19:33:54.819Z,19.90
2018-04-18T19:36:22.301Z,19.70
2018-04-18T19:38:49.768Z,19.60
2018-04-18T19:41:17.241Z,19.50
2018-04-18T19:43:44.685Z,19.40
2018-04-18T19:46:12.294Z,19.20
2018-04-18T19:48:39.751Z,19.10
2018-04-18T19:51:07.969Z,19.00
2018-04-18T19:53:35.481Z,19.00
2018-04-18T19:56:09.694Z,18.90
2018-04-18T19:58:37.912Z,18.80
2018-04-18T20:01:05.382Z,18.80
2018-04-18T20:03:32.813Z,18.70
2018-04-18T20:06:00.250Z,18.60
2018-04-18T20:08:28.471Z,18.50
2018-04-18T20:10:56.001Z,18.50
2018-04-18T20:13:23.440Z,18.40
2018-04-18T20:15:51.663Z,18.30
2018-04-18T20:18:19.103Z,18.30
2018-04-18T20:20:50.032Z,18.20
2018-04-18T20:23:17.483Z,18.10
2018-04-18T20:25:44.930Z,18.10
2018-04-18T20:28:13.168Z,18.00
2018-04-18T20:30:40.589Z,18.00
2018-04-18T20:33:08.048Z,18.00
2018-04-18T20:35:35.501Z,17.90
2018-04-18T20:38:02.999Z,17.90
2018-04-18T20:40:30.402Z,17.80
2018-04-18T20:42:57.839Z,17.70
2018-04-18T20:45:26.082Z,17.60
2018-04-18T20:47:53.520Z,17.50
2018-04-18T20:50:21.968Z,17.50
2018-04-18T20:52:49.447Z,17.30
2018-04-18T20:55:16.889Z,17.20
2018-04-18T20:57:44.342Z,17.10
2018-04-18T21:00:11.797Z,17.00
2018-04-18T21:02:39.317Z,16.90
2018-04-18T21:05:06.779Z,16.90
2018-04-18T21:07:34.217Z,16.80
2018-04-18T21:10:01.652Z,16.70
2018-04-18T21:12:29.105Z,16.60
2018-04-18T21:15:01.163Z,16.50
2018-04-18T21:17:28.604Z,16.50
2018-04-18T21:19:56.825Z,16.40
2018-04-18T21:22:24.279Z,16.30
2018-04-18T21:24:51.729Z,16.30
2018-04-18T21:27:19.175Z,16.30
2018-04-18T21:29:46.632Z,16.30
2018-04-18T21:32:14.099Z,16.20
2018-04-18T21:34:41.555Z,16.10
2018-04-18T21:37:09.001Z,16.10
2018-04-18T21:39:36.471Z,16.10
2018-04-18T21:42:03.898Z,16.00
2018-04-18T21:44:31.342Z,15.80
2018-04-18T21:46:59.559Z,15.70
2018-04-18T21:49:27.032Z,15.70
2018-04-18T21:51:54.477Z,15.70
2018-04-18T21:54:21.937Z,15.70
2018-04-18T21:56:49.383Z,15.60
2018-04-18T21:59:16.817Z,15.50
2018-04-18T22:01:44.261Z,15.40
2018-04-18T22:04:13.504Z,15.20
2018-04-18T22:06:40.968Z,15.20
2018-04-18T22:09:08.414Z,15.20
2018-04-18T22:11:35.868Z,15.20
2018-04-18T22:14:03.320Z,15.10
2018-04-18T22:16:31.763Z,15.10
2018-04-18T22:18:59.978Z,15.00
2018-04-18T22:21:27.435Z,15.00
2018-04-18T22:23:54.899Z,15.00
2018-04-18T22:26:22.346Z,15.00
2018-04-18T22:28:49.797Z,15.00
2018-04-18T22:31:17.265Z,14.90
2018-04-18T22:33:44.717Z,14.90
2018-04-18T22:36:12.162Z,14.90
2018-04-18T22:38:39.624Z,14.90
2018-04-18T22:41:07.082Z,14.90
2018-04-18T22:43:34.517Z,14.80
2018-04-18T22:46:01.963Z,14.90
2018-04-18T22:48:30.176Z,14.90
2018-04-18T22:50:57.637Z,14.90
2018-04-18T22:53:25.097Z,14.90
2018-04-18T22:55:52.549Z,14.90
2018-04-18T22:58:21.008Z,14.90
2018-04-18T23:00:48.459Z,15.00
2018-04-18T23:03:16.674Z,15.10
2018-04-18T23:05:44.194Z,15.10
2018-04-18T23:08:12.402Z,15.30
2018-04-18T23:10:39.854Z,15.30
2018-04-18T23:13:07.294Z,15.30
2018-04-18T23:15:34.747Z,15.30
2018-04-18T23:18:02.194Z,15.30
2018-04-18T23:20:30.421Z,15.40
2018-04-18T23:22:57.851Z,15.40
2018-04-18T23:25:25.297Z,15.50
2018-04-18T23:27:52.752Z,15.40
2018-04-18T23:30:20.208Z,15.50
2018-04-18T23:32:47.651Z,15.60
2018-04-18T23:35:15.118Z,15.60
2018-04-18T23:37:42.567Z,15.60
2018-04-18T23:40:10.853Z,15.60
2018-04-18T23:42:38.359Z,15.60
2018-04-18T23:45:06.519Z,15.70
2018-04-18T23:47:33.966Z,15.70
2018-04-18T23:50:01.430Z,15.70
2018-04-18T23:52:28.882Z,15.70
2018-04-18T23:55:00.108Z,15.70
2018-04-18T23:57:28.311Z,15.60
2018-04-18T23:59:55.767Z,15.60
